默认 日期 大小 文件数 浏览量 最新下载 xml
1976磁力链接相关资源由用户搜索指令自动获取,结果来源于网络,本站不存储任何资料,亦不承担任何责任,请于24小时内删除,搜索到27051个磁力,显示前4000条数据,用时18ms。
    {"Importante Leeme!.vbs": 213, "Descargar Películas, Series y Animes...url": 50, "El.Fugitivo.Josey.Wales.1976.1080p-Dual-Lat.mkv": 2509372953}
创建时间: 2025-12-12 19:23:08 大小:2.34 GB 文件数量:3 热度:0
    {"myTV - 劇集 - 無花果 - 第 1 集.ts": 1008827928, "myTV - 劇集 - 無花果 - 第 2 集.ts": 928853480, "myTV - 劇集 - 無花果 - 第 3 集.ts": 907377864, "myTV - 劇集 - 無花果 - 第 4 集.ts": 1019149316, "myTV - 劇集 - 無花果 - 第 5 集.ts": 899769504, "myTV - 劇集 - 無花果 - 第 6 集.ts": 888860240, "myTV - ...
创建时间: 2025-12-12 18:17:43 大小:9.55 GB 文件数量:21 热度:0
    {"Up.1976.1080p.BluRay.x264.AAC-LAMA.mp4": 1435974335, "Up.1976.1080p.BluRay.x264.AAC-LAMA.srt": 71802, "Up.1976.1080p.BluRay.x264.AAC-LAMA.mp4.nfo": 4160}
创建时间: 2025-12-12 16:56:58 大小:1.34 GB 文件数量:3 热度:0
    {"Artwork": {"box1.png": 101263086, "box2.png": 103357122, "front.jpg": 1902891, "label1.jpg": 83183, "label2.jpg": 61657, "sticker.png": 4872693}, "folder.jpg": 42999, "foo_dr.txt": 1373, "lineage.txt": 607, "10 - Summer.flac": 234663634, "05 - Gypsy Man. ...
创建时间: 2025-12-12 16:50:55 大小:1.63 GB 文件数量:20 热度:0
    {"Importante Leeme!.vbs": 213, "Descargar Películas, Series y Animes...url": 50, "Sin.Miedo.a.la.Muerte.1976.WEB-DL.1080p-Dual-Lat.mkv": 7807398146}
创建时间: 2025-12-12 16:21:31 大小:7.27 GB 文件数量:3 热度:0
    {"04 - Wasted.flac": 34100749, "A Love Trilogy.txt": 194, "A Love Trilogy.m3u8": 145, "A Love Trilogy 01.jpg": 99331, "A Love Trilogy 02.jpg": 121579, "A Love Trilogy 03.jpg": 182790, "A Love Trilogy 04.jpg": 143216, "05 - Come With Me.flac": 28607638, "02 ...
创建时间: 2025-12-12 14:53:41 大小:205.29 MB 文件数量:11 热度:0
    ... ": 16208715495, "Frosty's Winter Wonderland 1976 4K 2160p HEVC DD2.0 ... , "Rudolph's Shiny New Year 1976 4K 2160p HEVC DDP2.0 ... ": 74448, "Frosty's Winter Wonderland 1976 4K 2160p HEVC DD2.0 ... , "Rudolph's Shiny New Year 1976 4K 2160p HEVC DDP2.0 ...
创建时间: 2025-12-12 10:34:57 大小:151.66 GB 文件数量:184 热度:0
    ... 的罗马人Bruttisporchiecattivi(1976)1080p原盘Remux中 ...
创建时间: 2025-12-11 19:27:57 大小:115.08 KB 文件数量:5 热度:0
    {"art": {"Roger Bennet -Traummelodien. Petite Fleur (a.jpg": 6149405, "Roger Bennet -Traummelodien. Petite Fleur (b.jpg": 4204454, "Roger Bennet -Traummelodien. Petite Fleur (c.jpg": 469211, "Roger Bennet -Traummelodien. Petite Fleur (d.jpg": 510260}, "06. ...
创建时间: 2025-12-11 16:53:13 大小:219.32 MB 文件数量:16 热度:0
    {"Mother Jugs And Speed 1976 DVDRip AAC2.0 x264.mkv": 1090910611, "Mother Jugs And Speed 1976 DVDRip AAC2.0 x264.srt": 126573}
创建时间: 2025-12-11 15:27:55 大小:1.02 GB 文件数量:2 热度:0
    ... - Virgin Killer.m3u": 202, "Scorpions - 1976 - Virgin Killer.jpg": 39449}
创建时间: 2025-12-11 15:02:21 大小:105.8 MB 文件数量:21 热度:0
    {"Importante Leeme!.vbs": 213, "Sin.Miedo.a.la.Muerte.1976.DVDRip-Lat.mp4": 686491346, "Descargar Películas, Series y Animes...url": 50}
创建时间: 2025-12-11 09:16:20 大小:654.69 MB 文件数量:3 热度:0
    {"art": {"Fausto Danieli -24 Super Hits en Sax (a.jpg": 7755306, "Fausto Danieli -24 Super Hits en Sax (b.jpg": 5671348, "Fausto Danieli -24 Super Hits en Sax (la.jpg": 378862, "Fausto Danieli -24 Super Hits en Sax (lb.jpg": 371044, "Fausto Danieli -24 ...
创建时间: 2025-12-11 08:08:20 大小:438.31 MB 文件数量:31 热度:0
    {"cover.jpg": 1327526, "Folder.auCDtect.txt": 3824, "2. Life Is Love.flac": 37035492, "6. Solitary Bird.flac": 25567290, "8. Easy is Right.flac": 33473656, "7. Le Ciel Est Bleu.flac": 19396233, "5. Grass Grows by Itself.flac": 37727822, "1. Celebration of ...
创建时间: 2025-12-10 18:39:59 大小:213.86 MB 文件数量:10 热度:0
    {"Importante Leeme!.vbs": 213, "Descargar Películas, Series y Animes...url": 50, "El.Fugitivo.Josey.Wales.1976.WEB-DL.1080p-Dual-Lat.mkv": 10230313671}
创建时间: 2025-12-10 18:18:38 大小:9.53 GB 文件数量:3 热度:0
    {"Sin.Miedo.A.La.Muerte.1976.1080P-Dual-Lat.mkv": 2053170124, "Descargar Películas, Series y Animes Gratis....url": 50, "Sin.Miedo.A.La.Muerte.1976.1080P-Dual-Lat_Track05.srt": 72830}
创建时间: 2025-12-10 12:47:19 大小:1.91 GB 文件数量:3 热度:0
    ... , "cover.jpg": 122861, "Тимофей Докшицер (1976)(С10 08227-8).cue": 931 ... , "Тимофей Докшицер (1976)(С10 08227-8).jpg": 1206244 ... -8).jpg": 1476123, "Тимофей Докшицер (1976)(С10 08227-8).flac": 741165607}
创建时间: 2025-12-09 19:42:49 大小:716.19 MB 文件数量:11 热度:0
    {"Importante Leeme!.vbs": 213, "Descargar Películas, Series y Animes...url": 50, "Sin.Miedo.a.la.Muerte.1976.1080p-Dual-Lat.mkv": 2536509891}
创建时间: 2025-12-09 19:42:32 大小:2.36 GB 文件数量:3 热度:0
    {"covers": {"Camel - Moonmadness - Back.png": 30534688, "Camel - Moonmadness - Disc.png": 24137624, "Camel - Moonmadness - Inlay.png": 44850926, "Camel - Moonmadness - Back-Front.png": 44792934}, "folder.jpg": 94070, "About Camel.odt": 24448, "06 - Camel - ...
创建时间: 2025-12-06 19:13:57 大小:228.19 MB 文件数量:15 热度:0
    {"NUEVOCANAL [email protected]": 220, "La siesta (1976 Drama Jorge Grau) DVDrip.avi": 1333968384, "sinsitio.site Descargar Torrent Gratis Visitanos.url": 230}
创建时间: 2025-12-06 16:38:54 大小:1.24 GB 文件数量:3 热度:0